9TX5 weather

Camp Bullis Als (Cals) Airport
San Antonio, Texas, United States

Public forecast

Using degrees Fahrenheit for public forecast. Weather courtesy of forecast.io.

Closest aviation weather report (METAR) to Camp Bullis Als (Cals) Airport

Closest report is Boerne Stage Field, 8.3 nm (15.4 km) W. Retrieved 2020/08/08 08:35 UTC (0 seconds ago):

K5C1 080835Z AUTO 18006KT 10SM BKN011 OVC019 24/23 A3011 RMK AO1

Closest aviation forecast (TAF) to Camp Bullis Als (Cals) Airport

Closest forecast is San Antonio International Airport, 13.1 nm (24.3 km) SSE. Retrieved 2020/08/08 06:22 UTC (2 hours ago):

TAF KSAT 080520Z 0806/0912 15008KT P6SM FEW018 FM080800 16007KT P6SM BKN012 FM081600 17009G16KT P6SM SCT040 FM090900 15012KT P6SM BKN020